sensor_id;sensor_type;location;lat;lon;timestamp;pressure;altitude;pressure_sealevel;temperature;humidity
70127;BME280;57491;42.694;23.314;2023-03-22T00:02:01;94790.31;;;12.17;67.92
70127;BME280;57491;42.694;23.314;2023-03-22T00:04:29;94793.91;;;12.16;68.56
70127;BME280;57491;42.694;23.314;2023-03-22T00:06:58;94793.31;;;12.14;68.51
70127;BME280;57491;42.694;23.314;2023-03-22T00:09:25;94793.13;;;12.16;69.00
70127;BME280;57491;42.694;23.314;2023-03-22T00:11:52;94784.88;;;12.12;69.94
70127;BME280;57491;42.694;23.314;2023-03-22T00:14:19;94789.88;;;12.14;69.22
70127;BME280;57491;42.694;23.314;2023-03-22T00:16:47;94793.13;;;12.16;69.95
70127;BME280;57491;42.694;23.314;2023-03-22T00:19:15;94781.09;;;12.15;70.27
70127;BME280;57491;42.694;23.314;2023-03-22T00:21:42;94781.50;;;12.18;69.52
70127;BME280;57491;42.694;23.314;2023-03-22T00:24:10;94785.72;;;12.26;69.75
70127;BME280;57491;42.694;23.314;2023-03-22T00:26:38;94789.94;;;12.20;67.78
70127;BME280;57491;42.694;23.314;2023-03-22T00:29:05;94785.88;;;12.11;68.55
70127;BME280;57491;42.694;23.314;2023-03-22T00:31:32;94783.44;;;12.03;69.02
70127;BME280;57491;42.694;23.314;2023-03-22T00:33:59;94790.66;;;12.07;69.33
70127;BME280;57491;42.694;23.314;2023-03-22T00:36:26;94777.84;;;12.13;70.53
70127;BME280;57491;42.694;23.314;2023-03-22T00:38:53;94781.84;;;12.08;69.49
70127;BME280;57491;42.694;23.314;2023-03-22T00:41:23;94782.03;;;12.00;70.29
70127;BME280;57491;42.694;23.314;2023-03-22T00:43:51;94771.41;;;12.02;69.87
70127;BME280;57491;42.694;23.314;2023-03-22T00:46:20;94778.44;;;12.01;70.54
70127;BME280;57491;42.694;23.314;2023-03-22T00:48:48;94776.19;;;11.98;70.26
70127;BME280;57491;42.694;23.314;2023-03-22T00:51:15;94770.97;;;11.92;69.41
70127;BME280;57491;42.694;23.314;2023-03-22T00:53:42;94766.56;;;11.92;70.18
70127;BME280;57491;42.694;23.314;2023-03-22T00:56:10;94754.88;;;11.82;69.92
70127;BME280;57491;42.694;23.314;2023-03-22T00:58:41;94768.31;;;11.85;70.28
70127;BME280;57491;42.694;23.314;2023-03-22T01:01:09;94769.31;;;11.84;71.00
70127;BME280;57491;42.694;23.314;2023-03-22T01:03:38;94768.13;;;11.87;72.57
70127;BME280;57491;42.694;23.314;2023-03-22T01:06:06;94769.75;;;11.88;71.09
70127;BME280;57491;42.694;23.314;2023-03-22T01:08:33;94763.13;;;11.85;71.57
70127;BME280;57491;42.694;23.314;2023-03-22T01:11:04;94763.91;;;11.86;71.64
70127;BME280;57491;42.694;23.314;2023-03-22T01:13:32;94765.72;;;11.85;71.22
70127;BME280;57491;42.694;23.314;2023-03-22T01:16:00;94750.50;;;11.82;72.15
70127;BME280;57491;42.694;23.314;2023-03-22T01:18:27;94756.47;;;11.76;71.48
70127;BME280;57491;42.694;23.314;2023-03-22T01:20:55;94761.50;;;11.78;71.24
70127;BME280;57491;42.694;23.314;2023-03-22T01:23:22;94764.28;;;11.76;71.00
70127;BME280;57491;42.694;23.314;2023-03-22T01:25:49;94760.69;;;11.77;71.71
70127;BME280;57491;42.694;23.314;2023-03-22T01:28:16;94722.47;;;11.50;71.15
70127;BME280;57491;42.694;23.314;2023-03-22T01:30:43;94743.69;;;11.53;71.59
70127;BME280;57491;42.694;23.314;2023-03-22T01:33:12;94747.09;;;11.54;71.61
70127;BME280;57491;42.694;23.314;2023-03-22T01:35:39;94748.09;;;11.53;71.60
70127;BME280;57491;42.694;23.314;2023-03-22T01:38:06;94749.94;;;11.52;71.90
70127;BME280;57491;42.694;23.314;2023-03-22T01:40:34;94747.91;;;11.48;71.58
70127;BME280;57491;42.694;23.314;2023-03-22T01:43:01;94751.03;;;11.37;71.74
70127;BME280;57491;42.694;23.314;2023-03-22T01:45:40;94745.16;;;11.28;71.98
70127;BME280;57491;42.694;23.314;2023-03-22T01:48:13;94756.31;;;11.22;73.06
70127;BME280;57491;42.694;23.314;2023-03-22T01:50:44;94753.31;;;11.18;73.20
70127;BME280;57491;42.694;23.314;2023-03-22T01:53:13;94739.66;;;11.10;73.30
70127;BME280;57491;42.694;23.314;2023-03-22T01:55:44;94743.88;;;11.11;73.18
70127;BME280;57491;42.694;23.314;2023-03-22T01:58:13;94741.44;;;11.09;73.38
70127;BME280;57491;42.694;23.314;2023-03-22T02:00:43;94742.06;;;11.11;74.57
70127;BME280;57491;42.694;23.314;2023-03-22T02:03:13;94745.69;;;11.17;74.01
70127;BME280;57491;42.694;23.314;2023-03-22T02:05:42;94739.66;;;11.10;73.24
70127;BME280;57491;42.694;23.314;2023-03-22T02:08:10;94748.09;;;11.18;73.75
70127;BME280;57491;42.694;23.314;2023-03-22T02:10:39;94748.91;;;11.19;74.15
70127;BME280;57491;42.694;23.314;2023-03-22T02:13:24;94755.69;;;11.13;73.92
70127;BME280;57491;42.694;23.314;2023-03-22T02:16:03;94751.28;;;11.14;73.96
70127;BME280;57491;42.694;23.314;2023-03-22T02:18:37;94746.88;;;11.14;74.36
70127;BME280;57491;42.694;23.314;2023-03-22T02:24:39;94748.44;;;11.09;73.93
70127;BME280;57491;42.694;23.314;2023-03-22T02:30:58;94759.00;;;11.01;74.76
70127;BME280;57491;42.694;23.314;2023-03-22T02:36:43;94761.78;;;10.99;75.10
70127;BME280;57491;42.694;23.314;2023-03-22T02:39:26;94754.34;;;10.96;74.67
70127;BME280;57491;42.694;23.314;2023-03-22T02:42:06;94753.72;;;10.94;74.52
70127;BME280;57491;42.694;23.314;2023-03-22T02:44:41;94759.16;;;10.99;74.01
70127;BME280;57491;42.694;23.314;2023-03-22T02:47:15;94757.13;;;10.95;73.96
70127;BME280;57491;42.694;23.314;2023-03-22T02:49:51;94765.16;;;10.93;74.00
70127;BME280;57491;42.694;23.314;2023-03-22T02:52:25;94773.53;;;10.95;73.78
70127;BME280;57491;42.694;23.314;2023-03-22T02:55:01;94770.34;;;10.93;73.26
70127;BME280;57491;42.694;23.314;2023-03-22T02:57:36;94767.53;;;10.95;73.06
70127;BME280;57491;42.694;23.314;2023-03-22T03:00:06;94768.50;;;10.87;73.47
70127;BME280;57491;42.694;23.314;2023-03-22T03:02:37;94763.66;;;10.84;73.58
70127;BME280;57491;42.694;23.314;2023-03-22T03:05:07;94768.72;;;10.92;73.87
70127;BME280;57491;42.694;23.314;2023-03-22T03:07:34;94765.16;;;10.93;74.65
70127;BME280;57491;42.694;23.314;2023-03-22T03:10:06;94771.44;;;11.05;74.10
70127;BME280;57491;42.694;23.314;2023-03-22T03:12:34;94763.06;;;11.10;73.75
70127;BME280;57491;42.694;23.314;2023-03-22T03:15:04;94769.88;;;11.11;73.40
70127;BME280;57491;42.694;23.314;2023-03-22T03:17:47;94769.81;;;11.04;73.48
70127;BME280;57491;42.694;23.314;2023-03-22T03:20:26;94761.78;;;10.99;74.01
70127;BME280;57491;42.694;23.314;2023-03-22T03:23:09;94773.66;;;11.08;73.92
70127;BME280;57491;42.694;23.314;2023-03-22T03:25:44;94778.03;;;11.08;74.31
70127;BME280;57491;42.694;23.314;2023-03-22T03:28:17;94778.50;;;11.11;74.26
70127;BME280;57491;42.694;23.314;2023-03-22T03:31:07;94772.47;;;11.11;73.69
70127;BME280;57491;42.694;23.314;2023-03-22T03:33:42;94777.13;;;11.15;73.95
70127;BME280;57491;42.694;23.314;2023-03-22T03:36:11;94761.97;;;10.98;73.81
70127;BME280;57491;42.694;23.314;2023-03-22T03:38:44;94768.03;;;11.05;74.81
70127;BME280;57491;42.694;23.314;2023-03-22T03:41:16;94770.88;;;11.10;73.85
70127;BME280;57491;42.694;23.314;2023-03-22T03:43:44;94781.34;;;11.16;73.20
70127;BME280;57491;42.694;23.314;2023-03-22T03:46:13;94784.72;;;11.17;72.94
70127;BME280;57491;42.694;23.314;2023-03-22T03:48:45;94780.88;;;11.13;73.32
70127;BME280;57491;42.694;23.314;2023-03-22T03:51:14;94789.72;;;11.12;73.34
70127;BME280;57491;42.694;23.314;2023-03-22T03:53:41;94785.09;;;11.14;73.41
70127;BME280;57491;42.694;23.314;2023-03-22T03:56:09;94781.91;;;11.12;72.72
70127;BME280;57491;42.694;23.314;2023-03-22T03:58:37;94780.47;;;11.09;73.04
70127;BME280;57491;42.694;23.314;2023-03-22T04:01:06;94782.06;;;11.10;72.93
70127;BME280;57491;42.694;23.314;2023-03-22T04:03:33;94791.50;;;11.11;73.27
70127;BME280;57491;42.694;23.314;2023-03-22T04:06:01;94796.94;;;11.16;73.12
70127;BME280;57491;42.694;23.314;2023-03-22T04:08:28;94791.50;;;11.11;72.49
70127;BME280;57491;42.694;23.314;2023-03-22T04:10:55;94791.13;;;11.14;73.10
70127;BME280;57491;42.694;23.314;2023-03-22T04:13:22;94798.75;;;11.16;73.31
70127;BME280;57491;42.694;23.314;2023-03-22T04:15:54;94805.53;;;11.17;72.96
70127;BME280;57491;42.694;23.314;2023-03-22T04:18:22;94799.97;;;11.20;72.09
70127;BME280;57491;42.694;23.314;2023-03-22T04:20:50;94798.69;;;11.09;72.10
70127;BME280;57491;42.694;23.314;2023-03-22T04:23:18;94795.66;;;11.06;72.72
70127;BME280;57491;42.694;23.314;2023-03-22T04:25:47;94790.03;;;11.02;72.79
70127;BME280;57491;42.694;23.314;2023-03-22T04:28:15;94794.84;;;11.05;72.52
70127;BME280;57491;42.694;23.314;2023-03-22T04:30:45;94800.84;;;11.06;73.54
70127;BME280;57491;42.694;23.314;2023-03-22T04:33:17;94804.81;;;11.02;73.09
70127;BME280;57491;42.694;23.314;2023-03-22T04:35:44;94810.84;;;11.02;73.00
70127;BME280;57491;42.694;23.314;2023-03-22T04:38:12;94807.78;;;10.99;72.90
70127;BME280;57491;42.694;23.314;2023-03-22T04:40:39;94807.78;;;10.99;73.56
70127;BME280;57491;42.694;23.314;2023-03-22T04:43:12;94811.66;;;11.03;73.48
70127;BME280;57491;42.694;23.314;2023-03-22T04:45:40;94807.22;;;11.03;73.61
70127;BME280;57491;42.694;23.314;2023-03-22T04:48:08;94817.88;;;11.08;72.99
70127;BME280;57491;42.694;23.314;2023-03-22T04:50:38;94821.28;;;11.09;72.63
70127;BME280;57491;42.694;23.314;2023-03-22T04:53:06;94814.91;;;11.11;72.63
70127;BME280;57491;42.694;23.314;2023-03-22T04:55:34;94819.66;;;11.08;72.95
70127;BME280;57491;42.694;23.314;2023-03-22T04:58:01;94826.06;;;11.05;72.49
70127;BME280;57491;42.694;23.314;2023-03-22T05:00:28;94830.88;;;11.08;72.57
70127;BME280;57491;42.694;23.314;2023-03-22T05:02:56;94833.63;;;11.00;72.73
70127;BME280;57491;42.694;23.314;2023-03-22T05:05:23;94827.19;;;10.96;72.87
70127;BME280;57491;42.694;23.314;2023-03-22T05:07:52;94828.94;;;10.89;72.77
70127;BME280;57491;42.694;23.314;2023-03-22T05:10:19;94833.06;;;10.84;72.70
70127;BME280;57491;42.694;23.314;2023-03-22T05:12:46;94822.25;;;10.80;73.75
70127;BME280;57491;42.694;23.314;2023-03-22T05:15:13;94834.13;;;10.89;72.78
70127;BME280;57491;42.694;23.314;2023-03-22T05:17:40;94833.75;;;10.92;72.55
70127;BME280;57491;42.694;23.314;2023-03-22T05:20:08;94835.53;;;10.92;73.11
70127;BME280;57491;42.694;23.314;2023-03-22T05:22:36;94847.19;;;10.96;72.76
70127;BME280;57491;42.694;23.314;2023-03-22T05:25:08;94848.06;;;11.03;73.15
70127;BME280;57491;42.694;23.314;2023-03-22T05:27:35;94852.72;;;11.07;72.64
70127;BME280;57491;42.694;23.314;2023-03-22T05:30:05;94853.72;;;11.13;73.50
70127;BME280;57491;42.694;23.314;2023-03-22T05:32:32;94855.41;;;11.21;73.22
70127;BME280;57491;42.694;23.314;2023-03-22T05:35:02;94857.50;;;11.32;71.86
70127;BME280;57491;42.694;23.314;2023-03-22T05:37:29;94841.03;;;11.25;72.00
70127;BME280;57491;42.694;23.314;2023-03-22T05:39:56;94851.72;;;11.36;71.81
70127;BME280;57491;42.694;23.314;2023-03-22T05:42:25;94848.72;;;11.39;71.28
70127;BME280;57491;42.694;23.314;2023-03-22T05:44:52;94843.69;;;11.31;71.66
70127;BME280;57491;42.694;23.314;2023-03-22T05:47:19;94857.56;;;11.38;72.46
70127;BME280;57491;42.694;23.314;2023-03-22T05:49:46;94859.34;;;11.38;71.59
70127;BME280;57491;42.694;23.314;2023-03-22T05:52:14;94851.97;;;11.41;72.36
70127;BME280;57491;42.694;23.314;2023-03-22T05:54:41;94854.75;;;11.40;71.36
70127;BME280;57491;42.694;23.314;2023-03-22T05:57:08;94864.00;;;11.42;70.94
70127;BME280;57491;42.694;23.314;2023-03-22T05:59:36;94869.81;;;11.44;71.31
70127;BME280;57491;42.694;23.314;2023-03-22T06:02:03;94872.56;;;11.36;70.76
70127;BME280;57491;42.694;23.314;2023-03-22T06:04:31;94869.13;;;11.36;70.01
70127;BME280;57491;42.694;23.314;2023-03-22T06:06:58;94857.47;;;11.25;70.17
70127;BME280;57491;42.694;23.314;2023-03-22T06:09:25;94877.19;;;11.41;70.64
70127;BME280;57491;42.694;23.314;2023-03-22T06:11:52;94876.19;;;11.42;70.04
70127;BME280;57491;42.694;23.314;2023-03-22T06:14:19;94875.22;;;11.43;69.95
70127;BME280;57491;42.694;23.314;2023-03-22T06:16:48;94876.81;;;11.44;70.13
70127;BME280;57491;42.694;23.314;2023-03-22T06:19:15;94874.41;;;11.42;69.82
70127;BME280;57491;42.694;23.314;2023-03-22T06:21:42;94883.28;;;11.48;69.92
70127;BME280;57491;42.694;23.314;2023-03-22T06:24:09;94883.47;;;11.53;69.96
70127;BME280;57491;42.694;23.314;2023-03-22T06:26:36;94882.13;;;11.57;69.85
70127;BME280;57491;42.694;23.314;2023-03-22T06:29:03;94883.78;;;11.64;69.61
70127;BME280;57491;42.694;23.314;2023-03-22T06:31:30;94879.41;;;11.72;69.21
70127;BME280;57491;42.694;23.314;2023-03-22T06:33:59;94880.66;;;11.76;69.61
70127;BME280;57491;42.694;23.314;2023-03-22T06:36:26;94886.75;;;11.83;68.55
70127;BME280;57491;42.694;23.314;2023-03-22T06:38:53;94894.34;;;11.84;68.67
70127;BME280;57491;42.694;23.314;2023-03-22T06:41:20;94886.34;;;11.86;69.06
70127;BME280;57491;42.694;23.314;2023-03-22T06:43:47;94891.97;;;11.89;69.35
70127;BME280;57491;42.694;23.314;2023-03-22T06:46:14;94893.81;;;11.95;68.64
70127;BME280;57491;42.694;23.314;2023-03-22T06:48:41;94899.47;;;11.99;68.50
70127;BME280;57491;42.694;23.314;2023-03-22T06:51:10;94893.44;;;11.98;68.36
70127;BME280;57491;42.694;23.314;2023-03-22T06:53:37;94896.09;;;12.05;68.59
70127;BME280;57491;42.694;23.314;2023-03-22T06:56:05;94905.31;;;12.07;67.62
70127;BME280;57491;42.694;23.314;2023-03-22T06:58:32;94890.72;;;12.13;68.07
70127;BME280;57491;42.694;23.314;2023-03-22T07:00:59;94904.78;;;12.19;66.52
70127;BME280;57491;42.694;23.314;2023-03-22T07:03:26;94906.78;;;12.17;68.06
70127;BME280;57491;42.694;23.314;2023-03-22T07:06:00;94909.66;;;12.28;67.21
70127;BME280;57491;42.694;23.314;2023-03-22T07:08:29;94907.22;;;12.27;67.17
70127;BME280;57491;42.694;23.314;2023-03-22T07:10:56;94918.88;;;12.31;66.29
70127;BME280;57491;42.694;23.314;2023-03-22T07:13:23;94915.44;;;12.24;67.05
70127;BME280;57491;42.694;23.314;2023-03-22T07:15:54;94916.63;;;12.21;66.56
70127;BME280;57491;42.694;23.314;2023-03-22T07:18:21;94919.88;;;12.30;67.33
70127;BME280;57491;42.694;23.314;2023-03-22T07:20:48;94922.72;;;12.35;65.52
70127;BME280;57491;42.694;23.314;2023-03-22T07:23:16;94926.75;;;12.44;66.17
70127;BME280;57491;42.694;23.314;2023-03-22T07:25:45;94918.00;;;12.51;66.16
70127;BME280;57491;42.694;23.314;2023-03-22T07:28:12;94923.41;;;12.57;65.48
70127;BME280;57491;42.694;23.314;2023-03-22T07:30:39;94926.56;;;12.45;65.31
70127;BME280;57491;42.694;23.314;2023-03-22T07:33:08;94942.00;;;12.40;66.32
70127;BME280;57491;42.694;23.314;2023-03-22T07:35:36;94932.72;;;12.31;66.38
70127;BME280;57491;42.694;23.314;2023-03-22T07:38:04;94932.31;;;12.28;66.97
70127;BME280;57491;42.694;23.314;2023-03-22T07:40:32;94928.09;;;12.27;66.91
70127;BME280;57491;42.694;23.314;2023-03-22T07:43:00;94935.09;;;12.26;66.87
70127;BME280;57491;42.694;23.314;2023-03-22T07:45:27;94919.38;;;12.13;66.71
70127;BME280;57491;42.694;23.314;2023-03-22T07:47:54;94948.13;;;12.26;68.02
70127;BME280;57491;42.694;23.314;2023-03-22T07:50:22;94945.56;;;12.33;67.21
70127;BME280;57491;42.694;23.314;2023-03-22T07:52:49;94924.44;;;12.21;67.04
70127;BME280;57491;42.694;23.314;2023-03-22T07:55:16;94950.81;;;12.39;66.79
70127;BME280;57491;42.694;23.314;2023-03-22T07:57:43;94945.38;;;12.34;66.25
70127;BME280;57491;42.694;23.314;2023-03-22T08:00:13;94948.72;;;12.22;66.28
70127;BME280;57491;42.694;23.314;2023-03-22T08:02:42;94945.41;;;12.06;66.04
70127;BME280;57491;42.694;23.314;2023-03-22T08:05:10;94949.94;;;11.98;66.31
70127;BME280;57491;42.694;23.314;2023-03-22T08:07:37;94950.53;;;11.93;67.35
70127;BME280;57491;42.694;23.314;2023-03-22T08:10:05;94946.56;;;11.97;67.01
70127;BME280;57491;42.694;23.314;2023-03-22T08:12:32;94948.16;;;11.98;67.39
70127;BME280;57491;42.694;23.314;2023-03-22T08:15:00;94953.84;;;12.08;67.09
70127;BME280;57491;42.694;23.314;2023-03-22T08:17:29;94951.88;;;12.17;66.80
70127;BME280;57491;42.694;23.314;2023-03-22T08:19:56;94948.69;;;12.15;65.81
70127;BME280;57491;42.694;23.314;2023-03-22T08:22:23;94954.13;;;12.20;65.97
70127;BME280;57491;42.694;23.314;2023-03-22T08:24:50;94953.50;;;12.18;66.74
70127;BME280;57491;42.694;23.314;2023-03-22T08:27:19;94956.50;;;12.15;66.93
70127;BME280;57491;42.694;23.314;2023-03-22T08:29:46;94956.34;;;12.23;66.51
70127;BME280;57491;42.694;23.314;2023-03-22T08:32:14;94959.13;;;12.22;66.58
70127;BME280;57491;42.694;23.314;2023-03-22T08:34:43;94957.50;;;12.14;66.34
70127;BME280;57491;42.694;23.314;2023-03-22T08:37:11;94953.25;;;12.06;66.45
70127;BME280;57491;42.694;23.314;2023-03-22T08:39:38;94926.72;;;11.96;66.84
70127;BME280;57491;42.694;23.314;2023-03-22T08:42:06;94962.94;;;12.19;66.82
70127;BME280;57491;42.694;23.314;2023-03-22T08:44:33;94966.19;;;12.28;67.20
70127;BME280;57491;42.694;23.314;2023-03-22T08:47:00;94967.03;;;12.35;66.06
70127;BME280;57491;42.694;23.314;2023-03-22T08:49:28;94967.81;;;12.29;65.82
70127;BME280;57491;42.694;23.314;2023-03-22T08:51:57;94975.25;;;12.32;65.83
70127;BME280;57491;42.694;23.314;2023-03-22T08:54:24;94976.22;;;12.31;65.48
70127;BME280;57491;42.694;23.314;2023-03-22T08:56:52;94975.25;;;12.32;65.81
70127;BME280;57491;42.694;23.314;2023-03-22T08:59:20;94973.84;;;12.36;67.33
70127;BME280;57491;42.694;23.314;2023-03-22T09:01:47;94976.03;;;12.32;68.17
70127;BME280;57491;42.694;23.314;2023-03-22T09:04:14;94978.38;;;12.21;68.39
70127;BME280;57491;42.694;23.314;2023-03-22T09:06:41;94978.59;;;12.26;68.37
70127;BME280;57491;42.694;23.314;2023-03-22T09:09:11;94971.59;;;12.26;69.48
70127;BME280;57491;42.694;23.314;2023-03-22T09:11:38;94968.47;;;12.37;68.63
70127;BME280;57491;42.694;23.314;2023-03-22T09:14:07;94988.50;;;12.37;67.50
70127;BME280;57491;42.694;23.314;2023-03-22T09:16:35;94990.25;;;12.30;67.52
70127;BME280;57491;42.694;23.314;2023-03-22T09:19:02;94984.78;;;12.18;67.32
70127;BME280;57491;42.694;23.314;2023-03-22T09:21:30;94982.75;;;12.14;67.95
70127;BME280;57491;42.694;23.314;2023-03-22T09:23:57;94995.19;;;12.18;67.39
70127;BME280;57491;42.694;23.314;2023-03-22T09:26:25;94986.41;;;12.26;67.87
70127;BME280;57491;42.694;23.314;2023-03-22T09:28:53;94983.22;;;12.24;67.22
70127;BME280;57491;42.694;23.314;2023-03-22T09:31:20;94986.06;;;12.29;66.79
70127;BME280;57491;42.694;23.314;2023-03-22T09:33:47;94987.06;;;12.28;67.05
70127;BME280;57491;42.694;23.314;2023-03-22T09:36:14;94987.66;;;12.30;67.56
70127;BME280;57491;42.694;23.314;2023-03-22T09:38:42;94993.09;;;12.35;68.13
70127;BME280;57491;42.694;23.314;2023-03-22T09:41:11;94983.53;;;12.42;67.86
70127;BME280;57491;42.694;23.314;2023-03-22T09:43:43;94973.69;;;12.37;68.43
70127;BME280;57491;42.694;23.314;2023-03-22T09:46:15;94981.69;;;12.36;67.87
70127;BME280;57491;42.694;23.314;2023-03-22T09:48:45;94991.94;;;12.44;67.90
70127;BME280;57491;42.694;23.314;2023-03-22T09:51:24;94988.19;;;12.53;67.23
70127;BME280;57491;42.694;23.314;2023-03-22T09:53:53;94990.44;;;12.63;66.45
70127;BME280;57491;42.694;23.314;2023-03-22T09:56:23;94990.44;;;12.63;67.05
70127;BME280;57491;42.694;23.314;2023-03-22T09:58:56;94987.91;;;12.76;67.88
70127;BME280;57491;42.694;23.314;2023-03-22T10:01:30;94983.53;;;12.83;66.84
70127;BME280;57491;42.694;23.314;2023-03-22T10:04:21;94981.09;;;12.81;66.01
70127;BME280;57491;42.694;23.314;2023-03-22T10:06:58;94991.94;;;12.78;65.37
70127;BME280;57491;42.694;23.314;2023-03-22T10:09:34;94991.47;;;12.68;65.56
70127;BME280;57491;42.694;23.314;2023-03-22T10:12:10;94989.28;;;12.65;65.24
70127;BME280;57491;42.694;23.314;2023-03-22T10:14:46;94990.44;;;12.63;65.27
70127;BME280;57491;42.694;23.314;2023-03-22T10:17:18;94993.47;;;12.66;65.19
70127;BME280;57491;42.694;23.314;2023-03-22T10:19:51;94999.75;;;12.78;65.15
70127;BME280;57491;42.694;23.314;2023-03-22T10:22:22;94999.94;;;12.77;65.02
70127;BME280;57491;42.694;23.314;2023-03-22T10:24:51;95002.97;;;12.80;65.08
70127;BME280;57491;42.694;23.314;2023-03-22T10:27:21;95000.75;;;12.77;65.02
70127;BME280;57491;42.694;23.314;2023-03-22T10:29:52;94993.16;;;12.82;65.30
70127;BME280;57491;42.694;23.314;2023-03-22T10:32:28;94994.38;;;12.86;64.28
70127;BME280;57491;42.694;23.314;2023-03-22T10:34:56;94994.19;;;12.94;65.05
70127;BME280;57491;42.694;23.314;2023-03-22T10:37:28;94986.59;;;13.00;64.86
70127;BME280;57491;42.694;23.314;2023-03-22T10:39:57;94990.47;;;13.10;64.49
70127;BME280;57491;42.694;23.314;2023-03-22T10:42:27;94983.63;;;13.09;63.22
70127;BME280;57491;42.694;23.314;2023-03-22T10:45:00;94994.88;;;13.10;62.38
70127;BME280;57491;42.694;23.314;2023-03-22T10:47:31;94997.25;;;13.05;61.57
70127;BME280;57491;42.694;23.314;2023-03-22T10:50:01;94980.75;;;12.97;62.76
70127;BME280;57491;42.694;23.314;2023-03-22T10:52:37;94989.97;;;12.87;62.65
70127;BME280;57491;42.694;23.314;2023-03-22T10:55:10;94992.19;;;12.90;62.25
70127;BME280;57491;42.694;23.314;2023-03-22T10:57:37;94947.97;;;12.75;62.46
70127;BME280;57491;42.694;23.314;2023-03-22T11:00:10;94976.94;;;12.93;61.58
70127;BME280;57491;42.694;23.314;2023-03-22T11:02:47;94988.00;;;13.02;62.47
70127;BME280;57491;42.694;23.314;2023-03-22T11:05:22;94986.38;;;12.94;62.49
70127;BME280;57491;42.694;23.314;2023-03-22T11:07:50;94969.88;;;12.81;62.21
70127;BME280;57491;42.694;23.314;2023-03-22T11:10:27;94984.94;;;12.85;62.33
70127;BME280;57491;42.694;23.314;2023-03-22T11:13:12;94978.09;;;12.84;61.68
70127;BME280;57491;42.694;23.314;2023-03-22T11:15:51;94985.34;;;12.89;62.00
70127;BME280;57491;42.694;23.314;2023-03-22T11:18:19;94984.53;;;12.88;62.78
70127;BME280;57491;42.694;23.314;2023-03-22T11:20:56;94985.97;;;12.97;61.97
70127;BME280;57491;42.694;23.314;2023-03-22T11:23:24;94975.31;;;12.92;62.08
70127;BME280;57491;42.694;23.314;2023-03-22T11:25:55;94976.75;;;12.95;63.07
70127;BME280;57491;42.694;23.314;2023-03-22T11:28:27;94974.09;;;12.88;63.36
70127;BME280;57491;42.694;23.314;2023-03-22T11:31:03;94983.53;;;12.89;63.06
70127;BME280;57491;42.694;23.314;2023-03-22T11:33:31;94980.34;;;12.87;63.27
70127;BME280;57491;42.694;23.314;2023-03-22T11:36:00;94966.03;;;12.83;63.58
70127;BME280;57491;42.694;23.314;2023-03-22T11:38:33;94979.31;;;12.88;64.16
70127;BME280;57491;42.694;23.314;2023-03-22T11:41:02;94980.28;;;12.81;65.20
70127;BME280;57491;42.694;23.314;2023-03-22T11:43:32;94981.06;;;12.68;65.94
70127;BME280;57491;42.694;23.314;2023-03-22T11:46:03;94972.53;;;12.53;65.66
70127;BME280;57491;42.694;23.314;2023-03-22T11:48:31;94974.50;;;12.44;66.98
70127;BME280;57491;42.694;23.314;2023-03-22T11:51:06;94981.69;;;12.36;67.40
70127;BME280;57491;42.694;23.314;2023-03-22T11:53:37;94972.66;;;12.38;67.46
70127;BME280;57491;42.694;23.314;2023-03-22T11:56:08;94976.94;;;12.52;67.71
70127;BME280;57491;42.694;23.314;2023-03-22T11:58:53;94982.03;;;12.61;65.34
70127;BME280;57491;42.694;23.314;2023-03-22T12:01:30;94974.22;;;12.67;64.24
70127;BME280;57491;42.694;23.314;2023-03-22T12:04:00;94975.47;;;12.78;64.33
70127;BME280;57491;42.694;23.314;2023-03-22T12:06:32;94981.50;;;12.78;62.38
70127;BME280;57491;42.694;23.314;2023-03-22T12:09:04;94982.31;;;12.85;63.34
70127;BME280;57491;42.694;23.314;2023-03-22T12:11:37;94978.13;;;12.91;64.29
70127;BME280;57491;42.694;23.314;2023-03-22T12:14:07;94970.53;;;12.96;64.09
70127;BME280;57491;42.694;23.314;2023-03-22T12:16:47;94976.22;;;13.13;63.79
70127;BME280;57491;42.694;23.314;2023-03-22T12:19:45;94975.16;;;13.07;63.41
70127;BME280;57491;42.694;23.314;2023-03-22T12:22:16;94965.72;;;13.06;63.71
70127;BME280;57491;42.694;23.314;2023-03-22T12:24:44;94957.53;;;13.09;64.33
70127;BME280;57491;42.694;23.314;2023-03-22T12:27:15;94964.78;;;13.14;64.27
70127;BME280;57491;42.694;23.314;2023-03-22T12:29:46;94967.63;;;13.19;65.09
70127;BME280;57491;42.694;23.314;2023-03-22T12:32:21;94961.41;;;13.26;63.67
70127;BME280;57491;42.694;23.314;2023-03-22T12:34:51;94968.09;;;13.55;62.94
70127;BME280;57491;42.694;23.314;2023-03-22T12:37:23;94962.44;;;13.65;59.93
70127;BME280;57491;42.694;23.314;2023-03-22T12:39:55;94967.25;;;13.48;60.91
70127;BME280;57491;42.694;23.314;2023-03-22T12:42:30;94953.59;;;13.66;61.71
70127;BME280;57491;42.694;23.314;2023-03-22T12:45:02;94961.66;;;13.97;58.44
70127;BME280;57491;42.694;23.314;2023-03-22T12:47:37;94966.25;;;14.15;59.31
70127;BME280;57491;42.694;23.314;2023-03-22T12:50:11;94966.84;;;14.10;57.19
70127;BME280;57491;42.694;23.314;2023-03-22T12:52:41;94955.59;;;14.16;57.60
70127;BME280;57491;42.694;23.314;2023-03-22T12:55:19;94953.19;;;14.15;56.52
70127;BME280;57491;42.694;23.314;2023-03-22T12:57:47;94961.41;;;14.18;57.41
70127;BME280;57491;42.694;23.314;2023-03-22T13:00:18;94955.41;;;14.18;57.09
70127;BME280;57491;42.694;23.314;2023-03-22T13:02:52;94953.16;;;14.28;57.99
70127;BME280;57491;42.694;23.314;2023-03-22T13:05:26;94955.97;;;14.33;56.35
70127;BME280;57491;42.694;23.314;2023-03-22T13:07:54;94956.19;;;14.32;57.13
70127;BME280;57491;42.694;23.314;2023-03-22T13:10:48;94962.22;;;14.19;57.49
70127;BME280;57491;42.694;23.314;2023-03-22T13:13:31;94957.03;;;14.12;58.53
70127;BME280;57491;42.694;23.314;2023-03-22T13:16:02;94949.78;;;14.08;57.58